Time;durP1;ratioP1;P1;durP2;ratioP2;P2;SDS_P1;SDS_P2;PMS_P1;PMS_P2;Temp;Humidity;BMP_temperature;BMP_pressure;BME280_temperature;BME280_humidity;BME280_pressure;Samples;Min_cycle;Max_cycle;Signal;HPM_P1;HPM_P2
2023/01/15 00:01:40;;;;;;;4.40;0.90;;;6.00;90.30;;;;;;5029857;28;20482;-45
2023/01/15 00:04:11;;;;;;;3.22;1.13;;;6.00;90.30;;;;;;5034254;28;20382;-48
2023/01/15 00:06:41;;;;;;;6.43;1.17;;;6.10;90.40;;;;;;5034525;28;20546;-44
2023/01/15 00:09:12;;;;;;;12.40;1.63;;;6.00;90.40;;;;;;5029270;28;20083;-48
2023/01/15 00:11:39;;;;;;;5.55;1.17;;;6.00;90.60;;;;;;5024265;28;20035;-44
2023/01/15 00:14:05;;;;;;;4.00;0.90;;;6.00;90.50;;;;;;5029017;28;20123;-45
2023/01/15 00:16:32;;;;;;;4.53;1.05;;;6.00;90.50;;;;;;5032603;28;20022;-46
2023/01/15 00:19:00;;;;;;;3.35;0.80;;;6.10;90.50;;;;;;5032534;28;20033;-50
2023/01/15 00:21:28;;;;;;;4.68;1.02;;;6.00;90.50;;;;;;5031255;28;20032;-49
2023/01/15 00:29:27;;;;;;;5.32;0.90;;;6.00;90.50;;;;;;5032600;28;20111;-45
2023/01/15 00:32:13;;;;;;;8.07;1.38;;;6.00;90.60;;;;;;5033977;28;20576;-45
2023/01/15 00:34:40;;;;;;;4.75;1.20;;;6.00;90.60;;;;;;5031846;28;20037;-46
2023/01/15 00:37:07;;;;;;;8.95;1.42;;;6.00;90.60;;;;;;5028834;28;20033;-49
2023/01/15 00:39:34;;;;;;;6.70;1.27;;;6.00;90.60;;;;;;5032118;28;20030;-46
2023/01/15 00:42:01;;;;;;;6.30;1.90;;;6.00;90.50;;;;;;5033384;28;20029;-46
2023/01/15 00:44:32;;;;;;;4.85;1.05;;;6.00;90.50;;;;;;5032229;28;20447;-43
2023/01/15 00:46:59;;;;;;;8.27;1.48;;;6.10;90.50;;;;;;5028027;28;20033;-48
2023/01/15 00:49:26;;;;;;;8.02;1.50;;;6.10;90.40;;;;;;5030036;28;20347;-46
2023/01/15 00:51:52;;;;;;;8.40;1.30;;;6.10;90.50;;;;;;5021348;28;20030;-45
2023/01/15 00:54:18;;;;;;;5.68;1.15;;;6.10;90.50;;;;;;5017224;28;20025;-44
2023/01/15 00:56:45;;;;;;;6.55;1.25;;;6.10;90.40;;;;;;5030171;28;20022;-45
2023/01/15 00:59:12;;;;;;;8.02;1.20;;;6.10;90.50;;;;;;5013038;28;20374;-45
2023/01/15 01:01:39;;;;;;;9.15;1.90;;;6.10;90.50;;;;;;5023024;28;20040;-44
2023/01/15 01:04:06;;;;;;;5.53;1.33;;;6.10;90.60;;;;;;5032263;28;20060;-46
2023/01/15 01:06:33;;;;;;;10.35;1.65;;;6.10;90.60;;;;;;5027430;28;20044;-49
2023/01/15 01:09:02;;;;;;;12.43;1.75;;;6.10;90.60;;;;;;5032480;28;20112;-44
2023/01/15 01:11:32;;;;;;;6.30;1.20;;;6.00;90.50;;;;;;5028591;28;20021;-47
2023/01/15 01:14:07;;;;;;;14.05;2.55;;;6.00;90.60;;;;;;5032503;28;20045;-47
2023/01/15 01:16:52;;;;;;;9.95;1.63;;;6.00;90.40;;;;;;5029818;28;20699;-45
2023/01/15 01:19:21;;;;;;;7.82;1.42;;;6.10;90.20;;;;;;5032898;28;20037;-43
2023/01/15 01:21:49;;;;;;;9.35;1.70;;;6.00;90.10;;;;;;5032014;28;20026;-44
2023/01/15 01:24:21;;;;;;;7.25;2.17;;;6.00;90.10;;;;;;5032318;28;20022;-47
2023/01/15 01:26:49;;;;;;;10.43;3.33;;;6.00;90.00;;;;;;5020459;28;20184;-44
2023/01/15 01:29:19;;;;;;;7.80;1.95;;;6.00;89.80;;;;;;5033362;28;20044;-43
2023/01/15 01:31:46;;;;;;;8.85;1.63;;;6.00;89.70;;;;;;5032501;28;20542;-46
2023/01/15 01:34:13;;;;;;;8.75;1.63;;;6.10;89.60;;;;;;5032439;28;20065;-43
2023/01/15 01:36:41;;;;;;;6.97;1.70;;;6.00;89.40;;;;;;5027581;28;20022;-44
2023/01/15 01:39:15;;;;;;;6.05;1.45;;;6.10;89.30;;;;;;5028973;28;20338;-45
2023/01/15 01:41:44;;;;;;;9.85;2.10;;;6.10;89.20;;;;;;5029141;28;20439;-45
2023/01/15 01:44:35;;;;;;;7.07;1.60;;;6.10;89.10;;;;;;5013213;28;20038;-45
2023/01/15 01:47:05;;;;;;;8.02;1.80;;;6.10;89.10;;;;;;5018430;28;20033;-46
2023/01/15 01:49:34;;;;;;;8.52;1.70;;;6.10;89.00;;;;;;5030537;28;20091;-45
2023/01/15 01:52:07;;;;;;;7.03;1.80;;;6.00;88.80;;;;;;5029916;28;20075;-45
2023/01/15 01:54:38;;;;;;;9.10;3.35;;;6.00;88.80;;;;;;5030727;28;20025;-43
2023/01/15 01:57:07;;;;;;;11.13;2.10;;;6.00;88.70;;;;;;5027030;28;20026;-45
2023/01/15 01:59:36;;;;;;;6.22;1.75;;;6.00;88.70;;;;;;5032413;28;20021;-44
2023/01/15 02:02:02;;;;;;;8.05;1.33;;;6.00;88.70;;;;;;5029168;28;20033;-44
2023/01/15 02:04:32;;;;;;;6.93;1.48;;;6.00;88.70;;;;;;5032294;28;20040;-44
2023/01/15 02:07:00;;;;;;;8.60;1.73;;;6.00;88.70;;;;;;5031397;28;20033;-44
2023/01/15 02:09:27;;;;;;;9.07;1.75;;;6.00;88.70;;;;;;5020345;28;20170;-46
2023/01/15 02:12:05;;;;;;;9.90;1.63;;;6.00;88.80;;;;;;5031716;28;20359;-45
2023/01/15 02:14:41;;;;;;;11.32;2.47;;;6.00;88.70;;;;;;5032522;28;20041;-45
2023/01/15 02:17:44;;;;;;;9.25;1.65;;;6.00;88.60;;;;;;5030994;28;20109;-46
2023/01/15 02:20:29;;;;;;;12.48;2.10;;;6.00;88.50;;;;;;5011710;28;20336;-45
2023/01/15 02:23:28;;;;;;;12.77;1.50;;;6.00;88.30;;;;;;5012580;28;20018;-43
2023/01/15 02:26:24;;;;;;;11.65;1.50;;;6.00;88.30;;;;;;5023878;28;20112;-44
2023/01/15 02:28:54;;;;;;;10.88;3.15;;;6.00;88.30;;;;;;5032103;28;20037;-44
2023/01/15 02:31:36;;;;;;;9.15;1.75;;;5.90;88.30;;;;;;5039224;28;20047;-45
2023/01/15 02:34:22;;;;;;;10.07;2.30;;;5.90;88.20;;;;;;5032734;28;20026;-45
2023/01/15 02:36:55;;;;;;;11.55;2.55;;;5.90;88.20;;;;;;5013160;28;20034;-47
2023/01/15 02:39:29;;;;;;;11.95;2.72;;;5.90;88.20;;;;;;5011938;28;20454;-45
2023/01/15 02:42:00;;;;;;;15.50;2.25;;;5.90;88.20;;;;;;5029113;28;20032;-46
2023/01/15 02:44:35;;;;;;;13.80;1.85;;;5.90;88.10;;;;;;5029003;28;20177;-48
2023/01/15 02:47:03;;;;;;;18.75;4.97;;;6.00;87.90;;;;;;5024857;28;20037;-44
2023/01/15 02:49:31;;;;;;;13.00;2.20;;;6.00;88.00;;;;;;5014258;28;20038;-46
2023/01/15 02:52:18;;;;;;;11.18;2.83;;;6.00;88.00;;;;;;5012150;28;20022;-45
2023/01/15 02:54:50;;;;;;;11.63;1.92;;;6.00;87.90;;;;;;5016069;28;20498;-45
2023/01/15 02:57:19;;;;;;;9.95;1.80;;;6.00;87.80;;;;;;5030954;28;20087;-46
2023/01/15 02:59:53;;;;;;;9.23;1.95;;;5.90;88.00;;;;;;5030830;28;20033;-45
2023/01/15 03:02:31;;;;;;;11.68;2.35;;;5.90;88.00;;;;;;5018975;28;20033;-45
2023/01/15 03:05:08;;;;;;;10.40;2.28;;;6.00;88.00;;;;;;5021839;28;20029;-46
2023/01/15 03:07:56;;;;;;;10.20;1.83;;;5.90;87.90;;;;;;5015987;28;20048;-44
2023/01/15 03:11:04;;;;;;;12.65;2.72;;;5.90;88.10;;;;;;5011829;28;20025;-45
2023/01/15 03:13:58;;;;;;;8.73;1.85;;;5.90;88.10;;;;;;5028711;28;20045;-49
2023/01/15 03:16:49;;;;;;;15.60;2.17;;;5.90;88.20;;;;;;5021100;28;20453;-44
2023/01/15 03:19:35;;;;;;;9.75;1.83;;;5.90;88.00;;;;;;5031459;28;20033;-47
2023/01/15 03:22:09;;;;;;;15.65;2.38;;;5.90;88.00;;;;;;5025900;28;20328;-46
2023/01/15 03:24:55;;;;;;;13.57;2.42;;;5.90;88.10;;;;;;4998276;28;20118;-45
2023/01/15 03:27:28;;;;;;;11.68;2.10;;;5.90;88.10;;;;;;5015866;28;20108;-45
2023/01/15 03:30:06;;;;;;;16.60;2.80;;;5.90;88.00;;;;;;5015287;28;20030;-45
2023/01/15 03:32:33;;;;;;;9.07;2.83;;;5.90;87.90;;;;;;5015484;28;20105;-48
2023/01/15 03:35:05;;;;;;;11.45;2.20;;;5.90;87.90;;;;;;5015568;28;20034;-44
2023/01/15 03:37:32;;;;;;;17.70;2.80;;;5.90;87.80;;;;;;5026056;28;20021;-48
2023/01/15 03:40:00;;;;;;;8.90;2.50;;;5.90;87.70;;;;;;5020808;28;20041;-44
2023/01/15 03:43:39;;;;;;;5.95;1.70;;;5.90;87.60;;;;;;5029969;28;20037;-46
2023/01/15 03:45:47;;;;;;;10.88;1.88;;;5.90;87.50;;;;;;5029722;28;20014;-45
2023/01/15 03:48:24;;;;;;;8.77;2.20;;;5.90;87.40;;;;;;5043929;28;20034;-44
2023/01/15 03:51:18;;;;;;;10.45;4.20;;;5.90;87.50;;;;;;5015428;28;20026;-46
2023/01/15 03:53:57;;;;;;;9.60;1.73;;;5.90;87.50;;;;;;5014775;28;20054;-45
2023/01/15 03:56:42;;;;;;;9.50;2.13;;;5.90;87.40;;;;;;5018952;28;20033;-47
2023/01/15 03:59:44;;;;;;;8.77;2.33;;;5.80;87.50;;;;;;5015665;28;20584;-45
2023/01/15 04:02:11;;;;;;;11.23;2.22;;;5.80;87.40;;;;;;5033976;28;20108;-48
2023/01/15 04:04:39;;;;;;;14.90;2.95;;;5.80;87.50;;;;;;5029600;28;20041;-47
2023/01/15 04:07:06;;;;;;;10.30;2.08;;;5.80;87.40;;;;;;5022241;28;20034;-46
2023/01/15 04:09:38;;;;;;;14.02;2.22;;;5.80;87.50;;;;;;5019553;28;20093;-45
2023/01/15 04:12:06;;;;;;;15.30;3.30;;;5.80;87.30;;;;;;5031230;28;20048;-45
2023/01/15 04:14:32;;;;;;;10.60;1.98;;;5.80;87.50;;;;;;5031049;28;20023;-48
2023/01/15 04:16:58;;;;;;;18.20;2.15;;;5.80;87.50;;;;;;5017945;28;20037;-47
2023/01/15 04:19:25;;;;;;;10.07;1.73;;;5.80;87.50;;;;;;5030296;28;20029;-44
2023/01/15 04:21:51;;;;;;;13.48;2.15;;;5.90;87.40;;;;;;5032632;28;20045;-45
2023/01/15 04:24:18;;;;;;;14.73;2.75;;;5.90;87.40;;;;;;5015666;28;20025;-46
2023/01/15 04:26:45;;;;;;;9.60;2.13;;;5.80;87.40;;;;;;5033669;28;20088;-46
2023/01/15 04:29:14;;;;;;;13.23;2.63;;;5.80;87.70;;;;;;5030552;28;20037;-51
2023/01/15 04:31:41;;;;;;;10.27;2.50;;;5.80;87.70;;;;;;5013785;28;20026;-45
2023/01/15 04:34:08;;;;;;;11.43;2.75;;;5.80;87.60;;;;;;5033270;28;20087;-46
2023/01/15 04:36:35;;;;;;;15.07;2.47;;;5.80;87.60;;;;;;5031952;28;20092;-46
2023/01/15 04:39:05;;;;;;;7.28;1.58;;;5.80;87.60;;;;;;5034331;28;20115;-46
2023/01/15 04:44:18;;;;;;;13.90;2.72;;;5.80;87.60;;;;;;5016159;28;20521;-45
2023/01/15 04:46:46;;;;;;;8.70;1.83;;;5.90;87.70;;;;;;5014326;28;20053;-46
2023/01/15 04:49:17;;;;;;;8.02;1.70;;;5.90;87.60;;;;;;5020245;28;20112;-45
2023/01/15 04:51:44;;;;;;;18.15;2.30;;;5.90;87.50;;;;;;5032782;28;20455;-45
2023/01/15 04:54:13;;;;;;;11.70;2.22;;;5.90;87.40;;;;;;5014709;28;20085;-44
2023/01/15 04:56:46;;;;;;;16.67;4.78;;;6.00;87.60;;;;;;5013946;28;20040;-44
2023/01/15 04:59:15;;;;;;;12.45;2.20;;;5.90;87.40;;;;;;5032020;28;20044;-45
2023/01/15 05:01:42;;;;;;;9.02;2.03;;;5.90;87.40;;;;;;5022059;28;20042;-46
2023/01/15 05:04:08;;;;;;;5.90;1.67;;;5.90;87.60;;;;;;5014178;28;20084;-46
2023/01/15 05:06:35;;;;;;;8.98;2.20;;;5.90;87.60;;;;;;5032042;28;20120;-49
2023/01/15 05:09:04;;;;;;;7.57;2.10;;;5.90;87.40;;;;;;5032777;28;20080;-47
2023/01/15 05:11:35;;;;;;;15.40;1.98;;;5.90;87.40;;;;;;5016871;28;20454;-46
2023/01/15 05:14:04;;;;;;;13.43;2.03;;;5.90;87.10;;;;;;5029590;28;20106;-45
2023/01/15 05:16:32;;;;;;;16.80;2.13;;;5.90;87.00;;;;;;5030993;28;20021;-45
2023/01/15 05:19:02;;;;;;;13.27;2.20;;;5.90;87.00;;;;;;5013225;28;20072;-46
2023/01/15 05:21:34;;;;;;;13.35;3.67;;;5.90;87.00;;;;;;5029564;28;20037;-44
2023/01/15 05:24:05;;;;;;;19.15;3.70;;;5.90;86.90;;;;;;5015785;28;20041;-45
2023/01/15 05:26:33;;;;;;;13.10;2.53;;;5.90;86.90;;;;;;5013847;28;20036;-47
2023/01/15 05:29:00;;;;;;;7.60;2.47;;;5.90;87.00;;;;;;5028145;28;20029;-45
2023/01/15 05:31:32;;;;;;;11.38;2.72;;;5.90;87.00;;;;;;5033570;28;20014;-44
2023/01/15 05:34:00;;;;;;;10.60;2.03;;;5.90;86.90;;;;;;5029947;28;20032;-47
2023/01/15 05:36:27;;;;;;;10.98;2.05;;;5.90;86.70;;;;;;5016405;28;20105;-45
2023/01/15 05:38:58;;;;;;;18.55;3.05;;;5.90;86.40;;;;;;5025467;28;20025;-46
2023/01/15 05:44:12;;;;;;;11.18;2.10;;;5.90;86.40;;;;;;5028786;28;20148;-49
2023/01/15 05:46:41;;;;;;;9.73;2.60;;;5.80;86.60;;;;;;5031635;28;20379;-45
2023/01/15 05:49:11;;;;;;;13.57;2.80;;;5.70;86.40;;;;;;5014511;28;20030;-47
2023/01/15 05:51:37;;;;;;;;;;;5.70;86.60;;;;;;5034477;28;20040;-50
2023/01/15 05:54:06;;;;;;;15.85;2.40;;;5.70;86.70;;;;;;5033225;28;20371;-48
2023/01/15 05:56:37;;;;;;;12.57;2.83;;;5.70;86.60;;;;;;5025493;28;20035;-45
2023/01/15 05:59:07;;;;;;;10.23;2.15;;;5.60;86.70;;;;;;5026944;28;20387;-47
2023/01/15 06:01:34;;;;;;;15.52;2.60;;;5.60;86.80;;;;;;5029380;28;20405;-47
2023/01/15 06:04:04;;;;;;;12.70;3.03;;;5.60;86.80;;;;;;5031907;28;20394;-47
2023/01/15 06:06:30;;;;;;;12.35;2.33;;;5.50;86.70;;;;;;5018323;28;20052;-45
2023/01/15 06:08:59;;;;;;;16.20;2.55;;;5.50;86.90;;;;;;5012740;28;20440;-46
2023/01/15 06:11:26;;;;;;;16.80;2.78;;;5.50;86.90;;;;;;5013495;28;20037;-51
2023/01/15 06:13:54;;;;;;;16.25;3.67;;;5.50;86.80;;;;;;5028836;28;20336;-46
2023/01/15 06:16:23;;;;;;;12.05;3.50;;;5.40;86.90;;;;;;5032821;28;20025;-49
2023/01/15 06:18:50;;;;;;;10.57;2.05;;;5.40;87.10;;;;;;5024126;28;20044;-45
2023/01/15 06:21:17;;;;;;;9.73;2.25;;;5.40;87.10;;;;;;5031271;28;20045;-45
2023/01/15 06:23:45;;;;;;;18.92;3.13;;;5.40;87.10;;;;;;5032504;28;20033;-48
2023/01/15 06:26:15;;;;;;;8.15;1.90;;;5.40;86.90;;;;;;5021246;28;20030;-48
2023/01/15 06:28:43;;;;;;;10.15;2.08;;;5.40;86.90;;;;;;5018191;28;20040;-48
2023/01/15 06:31:13;;;;;;;13.93;3.20;;;5.40;86.90;;;;;;5031939;28;20033;-48
2023/01/15 06:33:41;;;;;;;10.07;2.03;;;5.40;86.90;;;;;;5029536;28;20125;-46
2023/01/15 06:36:10;;;;;;;10.85;1.92;;;5.50;86.60;;;;;;5030018;28;20539;-48
2023/01/15 06:38:36;;;;;;;10.90;3.45;;;5.50;86.50;;;;;;5031216;28;20084;-46
2023/01/15 06:47:19;;;;;;;8.82;1.92;;;5.40;86.40;;;;;;5033554;28;20021;-45
2023/01/15 06:49:30;;;;;;;9.97;2.07;;;5.50;86.10;;;;;;5029731;28;20036;-46
2023/01/15 06:51:56;;;;;;;11.10;2.17;;;5.40;86.10;;;;;;5032133;28;20298;-46
2023/01/15 06:54:23;;;;;;;13.98;2.45;;;5.40;85.90;;;;;;5030348;28;20362;-46
2023/01/15 06:56:50;;;;;;;13.98;2.22;;;5.40;86.10;;;;;;5033674;28;20022;-46
2023/01/15 06:59:18;;;;;;;9.73;2.63;;;5.40;85.90;;;;;;5033664;28;20117;-45
2023/01/15 07:01:47;;;;;;;11.43;2.63;;;5.40;86.00;;;;;;5046745;28;20029;-47
2023/01/15 07:04:17;;;;;;;13.02;2.00;;;5.30;86.10;;;;;;5015388;28;20058;-49
2023/01/15 07:06:43;;;;;;;;;;;5.30;86.20;;;;;;5034371;28;20033;-47
2023/01/15 07:09:13;;;;;;;11.80;1.98;;;5.30;86.00;;;;;;5022858;28;20774;-46
2023/01/15 07:11:48;;;;;;;8.13;3.13;;;5.20;86.00;;;;;;5035333;28;20370;-47
2023/01/15 07:14:24;;;;;;;12.75;2.45;;;5.20;86.00;;;;;;5025065;28;20117;-47
2023/01/15 07:16:51;;;;;;;16.15;3.05;;;5.20;86.00;;;;;;5023469;28;20025;-47
2023/01/15 07:19:19;;;;;;;8.35;1.95;;;5.20;85.90;;;;;;5031135;28;20587;-48
2023/01/15 07:21:47;;;;;;;12.63;2.30;;;5.20;85.80;;;;;;5034992;28;20083;-49
2023/01/15 07:24:14;;;;;;;9.15;2.15;;;5.30;85.90;;;;;;5031873;28;20044;-46
2023/01/15 07:26:44;;;;;;;11.65;3.05;;;5.30;85.70;;;;;;5016790;28;20462;-50
2023/01/15 07:29:12;;;;;;;9.13;1.83;;;5.30;85.60;;;;;;5026882;28;20396;-47
2023/01/15 07:31:40;;;;;;;8.10;2.53;;;5.20;85.80;;;;;;5033962;28;20025;-47
2023/01/15 07:34:06;;;;;;;12.70;2.20;;;5.20;85.80;;;;;;5033114;28;20351;-48
2023/01/15 07:36:34;;;;;;;15.48;3.10;;;5.20;85.90;;;;;;5033990;28;20037;-46
2023/01/15 07:39:04;;;;;;;11.45;1.83;;;5.20;85.70;;;;;;5020296;28;20176;-47
2023/01/15 07:50:13;;;;;;;13.77;2.78;;;5.30;85.80;;;;;;5028266;28;20822;-48
2023/01/15 07:52:40;;;;;;;16.20;4.50;;;5.20;85.60;;;;;;5031200;28;20140;-47
2023/01/15 07:55:08;;;;;;;10.40;1.95;;;5.20;85.80;;;;;;5034239;28;20037;-48
2023/01/15 07:57:36;;;;;;;9.98;1.98;;;5.20;85.80;;;;;;5034302;28;20502;-46
2023/01/15 08:00:05;;;;;;;12.25;2.38;;;5.20;86.10;;;;;;5032300;28;20044;-46
2023/01/15 08:02:32;;;;;;;12.63;2.00;;;5.20;85.80;;;;;;5022501;28;20053;-47
2023/01/15 08:04:59;;;;;;;11.68;2.15;;;5.20;85.80;;;;;;5026028;28;20087;-46
2023/01/15 08:07:25;;;;;;;8.85;2.25;;;5.20;85.70;;;;;;5033144;28;20056;-47
2023/01/15 08:09:53;;;;;;;9.15;2.13;;;5.20;85.50;;;;;;5027274;28;20074;-47
2023/01/15 08:15:12;;;;;;;11.02;2.38;;;5.20;85.10;;;;;;5029325;28;20056;-45
2023/01/15 08:17:41;;;;;;;11.07;2.15;;;5.20;85.30;;;;;;5031292;28;20029;-47
2023/01/15 08:20:10;;;;;;;;;;;5.20;85.20;;;;;;5031554;28;20116;-47
2023/01/15 08:22:37;;;;;;;8.95;1.52;;;5.20;85.00;;;;;;5033491;28;19987;-49
2023/01/15 08:25:06;;;;;;;17.10;2.58;;;5.20;85.10;;;;;;5033255;28;20038;-47
2023/01/15 08:27:31;;;;;;;12.38;1.75;;;5.20;84.80;;;;;;5031194;28;20033;-47
2023/01/15 08:29:58;;;;;;;9.43;2.53;;;5.20;84.50;;;;;;5019891;28;20045;-48
2023/01/15 08:32:25;;;;;;;9.02;2.03;;;5.30;84.70;;;;;;5031805;28;20041;-50
2023/01/15 08:34:52;;;;;;;13.60;2.90;;;5.40;84.60;;;;;;5032763;28;20025;-47
2023/01/15 08:37:18;;;;;;;11.55;2.38;;;5.40;84.30;;;;;;5030900;28;20022;-47
2023/01/15 08:39:44;;;;;;;9.85;1.83;;;5.40;83.70;;;;;;5033833;28;20121;-48
2023/01/15 08:42:11;;;;;;;9.80;2.00;;;5.40;83.40;;;;;;5014320;28;20388;-47
2023/01/15 08:44:38;;;;;;;6.65;1.85;;;5.40;82.70;;;;;;5027132;28;20430;-49
2023/01/15 08:47:05;;;;;;;6.30;1.70;;;5.40;82.60;;;;;;5022603;28;20144;-49
2023/01/15 08:49:32;;;;;;;11.25;1.80;;;5.50;82.60;;;;;;5030156;28;20037;-50
2023/01/15 08:51:59;;;;;;;11.40;3.17;;;5.50;82.70;;;;;;5031693;28;20021;-46
2023/01/15 08:54:26;;;;;;;10.80;3.22;;;5.60;82.40;;;;;;5029013;28;20028;-47
2023/01/15 08:56:53;;;;;;;9.40;2.25;;;5.60;82.50;;;;;;5031881;28;20079;-47
2023/01/15 08:59:20;;;;;;;8.95;1.88;;;5.70;81.30;;;;;;5024898;28;20034;-48
2023/01/15 09:01:45;;;;;;;8.57;1.45;;;5.70;81.60;;;;;;5027061;28;20398;-50
2023/01/15 09:04:17;;;;;;;13.95;1.95;;;5.80;81.60;;;;;;5032065;28;20058;-47
2023/01/15 09:06:45;;;;;;;8.88;1.85;;;5.90;81.20;;;;;;5043843;28;20039;-50
2023/01/15 09:09:12;;;;;;;10.00;2.60;;;5.90;80.70;;;;;;5031961;28;20037;-48
2023/01/15 09:11:41;;;;;;;9.93;1.83;;;6.00;80.20;;;;;;5030135;28;20276;-51
2023/01/15 09:14:08;;;;;;;6.30;1.85;;;6.00;78.90;;;;;;5032426;28;20455;-52
2023/01/15 09:16:35;;;;;;;8.32;2.20;;;6.00;78.60;;;;;;5023558;28;20829;-47
2023/01/15 09:19:02;;;;;;;9.15;2.20;;;6.20;78.20;;;;;;5015735;28;20369;-52
2023/01/15 09:21:31;;;;;;;12.93;2.47;;;6.20;78.40;;;;;;5030648;28;20040;-50
2023/01/15 09:23:58;;;;;;;9.18;2.30;;;6.30;77.90;;;;;;5030056;28;20345;-50
2023/01/15 09:26:36;;;;;;;10.93;4.38;;;6.50;79.50;;;;;;5020563;28;20095;-47
2023/01/15 09:29:06;;;;;;;12.85;2.53;;;6.40;76.70;;;;;;5030510;28;20458;-48
2023/01/15 09:31:33;;;;;;;6.18;2.17;;;6.50;77.50;;;;;;5029101;28;20399;-47
2023/01/15 09:34:00;;;;;;;8.73;3.45;;;6.60;76.50;;;;;;5033156;28;20021;-49
2023/01/15 09:36:45;;;;;;;10.57;2.47;;;6.50;76.30;;;;;;5031182;28;20026;-49
2023/01/15 09:39:12;;;;;;;7.57;1.70;;;6.50;76.80;;;;;;5031124;28;20108;-50
2023/01/15 09:42:09;;;;;;;13.15;1.73;;;6.50;78.20;;;;;;5012981;28;20037;-47
2023/01/15 09:44:53;;;;;;;8.60;1.90;;;6.60;77.00;;;;;;5013685;28;20021;-50
2023/01/15 09:47:19;;;;;;;10.55;1.98;;;6.70;76.40;;;;;;5029657;28;20033;-46
2023/01/15 09:50:13;;;;;;;11.60;2.42;;;6.80;76.90;;;;;;5032661;28;20036;-49
2023/01/15 09:53:11;;;;;;;9.18;1.73;;;7.00;75.60;;;;;;5041028;28;20079;-47
2023/01/15 09:55:47;;;;;;;8.32;1.92;;;7.20;75.70;;;;;;5015310;28;20029;-49
2023/01/15 09:58:17;;;;;;;7.82;1.80;;;7.00;75.40;;;;;;5026778;28;20470;-50
2023/01/15 10:00:47;;;;;;;;;;;6.70;75.40;;;;;;5030231;28;20043;-49
2023/01/15 10:03:39;;;;;;;3.63;0.75;;;6.40;74.20;;;;;;5032684;28;19979;-49
2023/01/15 10:06:26;;;;;;;4.18;0.77;;;6.30;76.90;;;;;;5032155;28;20029;-50
2023/01/15 10:09:19;;;;;;;6.47;1.38;;;5.90;78.40;;;;;;5019538;28;20069;-50
2023/01/15 10:15:30;;;;;;;9.07;1.92;;;5.50;80.30;;;;;;5028860;28;20036;-49
2023/01/15 10:17:57;;;;;;;6.18;1.40;;;5.40;81.10;;;;;;5027164;28;20044;-49
2023/01/15 10:20:58;;;;;;;7.65;1.98;;;5.60;81.30;;;;;;5012305;28;20819;-48
2023/01/15 10:23:46;;;;;;;9.77;3.70;;;5.60;81.50;;;;;;5012272;28;20033;-47
2023/01/15 10:26:32;;;;;;;7.68;1.55;;;5.50;81.30;;;;;;5024259;28;20091;-51
2023/01/15 10:29:11;;;;;;;9.48;1.90;;;5.50;81.40;;;;;;5013759;28;20036;-50
2023/01/15 10:32:02;;;;;;;5.80;1.70;;;5.70;81.50;;;;;;5021081;28;20026;-49
2023/01/15 10:35:02;;;;;;;9.52;1.25;;;5.60;81.90;;;;;;5018376;28;20021;-50
2023/01/15 10:37:57;;;;;;;7.70;1.50;;;5.50;82.20;;;;;;5025681;28;20021;-48
2023/01/15 10:40:47;;;;;;;4.57;1.40;;;5.60;81.90;;;;;;5025808;28;20041;-46
2023/01/15 10:43:52;;;;;;;5.07;1.60;;;5.60;82.20;;;;;;5027537;28;20068;-49
2023/01/15 10:46:28;;;;;;;7.63;1.70;;;5.70;82.20;;;;;;5029119;28;20037;-47
2023/01/15 10:49:03;;;;;;;7.50;1.38;;;5.90;82.60;;;;;;5028097;28;20030;-48
2023/01/15 10:51:46;;;;;;;13.90;1.98;;;5.90;81.70;;;;;;5013210;28;20034;-51
2023/01/15 10:54:35;;;;;;;6.40;1.75;;;5.90;81.70;;;;;;5029119;28;20055;-50
2023/01/15 10:57:22;;;;;;;5.63;1.33;;;5.80;81.80;;;;;;5029892;28;20391;-51
2023/01/15 11:00:00;;;;;;;5.78;1.98;;;5.90;81.40;;;;;;5026443;28;20030;-48
2023/01/15 11:02:52;;;;;;;11.30;1.90;;;5.90;81.60;;;;;;5029359;28;20456;-47
2023/01/15 11:05:20;;;;;;;8.68;1.90;;;5.90;82.00;;;;;;5029598;28;20065;-50
2023/01/15 11:07:52;;;;;;;9.27;2.60;;;6.00;81.50;;;;;;5027072;28;20061;-47
2023/01/15 11:10:21;;;;;;;12.48;2.33;;;6.10;81.70;;;;;;5027743;28;20348;-48
2023/01/15 11:21:43;;;;;;;9.40;2.15;;;6.40;80.80;;;;;;5028991;28;20518;-47
2023/01/15 11:24:19;;;;;;;6.75;2.03;;;6.50;80.90;;;;;;5031690;28;20116;-49
2023/01/15 11:26:50;;;;;;;9.02;2.35;;;6.50;80.40;;;;;;5022168;28;20667;-49
2023/01/15 11:29:26;;;;;;;9.27;2.35;;;6.50;80.50;;;;;;5028701;28;20033;-48
2023/01/15 11:31:52;;;;;;;9.05;1.90;;;6.40;81.00;;;;;;5003674;28;20611;-50
2023/01/15 11:34:21;;;;;;;7.32;1.88;;;6.60;80.60;;;;;;5029581;28;20029;-52
2023/01/15 11:36:48;;;;;;;9.73;2.60;;;6.70;79.90;;;;;;5030874;28;20053;-47
2023/01/15 11:39:32;;;;;;;10.02;2.55;;;6.80;80.00;;;;;;5024201;28;20058;-51
2023/01/15 11:50:52;;;;;;;6.32;2.28;;;6.90;78.70;;;;;;5032736;28;20127;-46
2023/01/15 11:53:26;;;;;;;5.25;1.45;;;7.00;78.80;;;;;;5017246;28;20030;-48
2023/01/15 11:56:10;;;;;;;9.38;2.25;;;6.90;79.30;;;;;;5015705;28;20041;-47
2023/01/15 11:58:49;;;;;;;8.65;2.20;;;6.80;80.00;;;;;;5030699;28;20415;-51
2023/01/15 12:01:36;;;;;;;8.15;1.75;;;6.70;80.20;;;;;;5026130;28;20359;-49
2023/01/15 12:04:28;;;;;;;6.25;1.40;;;6.70;80.00;;;;;;5033224;28;20068;-54
2023/01/15 12:06:56;;;;;;;10.27;2.03;;;6.70;80.00;;;;;;5031745;28;20037;-47
2023/01/15 12:09:50;;;;;;;8.57;1.52;;;6.70;80.10;;;;;;5034231;28;20037;-49
2023/01/15 12:12:40;;;;;;;7.88;2.08;;;6.80;80.20;;;;;;5032601;28;20447;-48
2023/01/15 12:15:22;;;;;;;9.85;1.83;;;6.80;80.00;;;;;;5030108;28;20440;-51
2023/01/15 12:18:23;;;;;;;6.82;1.70;;;6.80;79.70;;;;;;5031203;28;20036;-49
2023/01/15 12:21:10;;;;;;;7.53;2.15;;;6.90;80.70;;;;;;5031244;28;20052;-51
2023/01/15 12:23:55;;;;;;;8.88;2.13;;;6.90;80.30;;;;;;5029387;28;20041;-48
2023/01/15 12:26:57;;;;;;;3.28;1.10;;;7.00;80.00;;;;;;5028502;28;20033;-49
2023/01/15 12:29:47;;;;;;;6.47;1.23;;;6.90;80.60;;;;;;5028140;28;20049;-51
2023/01/15 12:32:19;;;;;;;7.22;1.90;;;6.90;81.10;;;;;;5030839;28;20048;-48
2023/01/15 12:35:04;;;;;;;7.55;2.22;;;6.70;82.10;;;;;;5020895;28;20030;-47
2023/01/15 12:37:39;;;;;;;12.25;1.70;;;6.40;83.60;;;;;;5025727;28;20033;-46
2023/01/15 12:40:28;;;;;;;8.75;1.73;;;6.40;85.10;;;;;;5018682;28;20045;-44
2023/01/15 12:45:47;;;;;;;11.00;2.08;;;6.20;86.50;;;;;;5024761;28;20125;-45
2023/01/15 12:48:28;;;;;;;7.38;2.47;;;6.20;86.80;;;;;;5016255;28;20026;-54
2023/01/15 12:51:00;;;;;;;11.55;2.55;;;6.10;87.30;;;;;;5020110;28;20119;-57
2023/01/15 12:53:38;;;;;;;9.75;1.88;;;5.90;88.20;;;;;;5014739;28;20044;-55
2023/01/15 12:56:29;;;;;;;8.05;1.98;;;5.90;88.60;;;;;;5017383;28;20034;-62
2023/01/15 12:59:32;;;;;;;10.82;3.42;;;5.80;89.30;;;;;;5025049;28;20398;-62
2023/01/15 13:02:08;;;;;;;7.50;1.67;;;5.70;90.10;;;;;;5026795;28;20022;-61
2023/01/15 13:05:12;;;;;;;13.70;2.00;;;5.60;90.30;;;;;;5024721;28;20037;-61
2023/01/15 13:07:55;;;;;;;8.55;2.42;;;5.50;90.80;;;;;;5012161;28;20033;-58
2023/01/15 13:10:33;;;;;;;12.07;2.65;;;5.50;91.20;;;;;;5025293;28;20037;-53
2023/01/15 13:13:17;;;;;;;10.13;1.75;;;5.50;91.50;;;;;;5021665;28;20053;-52
2023/01/15 13:15:54;;;;;;;9.77;2.05;;;5.50;91.60;;;;;;5018892;28;20026;-52
2023/01/15 13:18:46;;;;;;;12.13;2.08;;;5.50;91.50;;;;;;5022900;28;20041;-51
2023/01/15 13:21:15;;;;;;;9.45;1.75;;;5.60;91.60;;;;;;5019554;28;20037;-51
2023/01/15 13:24:01;;;;;;;;;;;5.60;91.50;;;;;;5013469;28;20029;-51
2023/01/15 13:27:04;;;;;;;6.97;1.60;;;5.80;92.00;;;;;;5018505;28;20322;-51
2023/01/15 13:30:07;;;;;;;7.13;1.98;;;5.90;90.70;;;;;;5017130;28;20065;-54
2023/01/15 13:32:43;;;;;;;6.68;1.75;;;5.90;90.10;;;;;;5016300;28;20068;-49
2023/01/15 13:35:29;;;;;;;8.18;1.27;;;5.90;89.60;;;;;;5029707;28;20033;-51
2023/01/15 13:38:00;;;;;;;8.35;1.42;;;5.70;89.60;;;;;;5032070;28;20029;-56
2023/01/15 13:40:39;;;;;;;7.05;2.10;;;5.60;90.00;;;;;;5027335;28;20044;-50
2023/01/15 13:43:08;;;;;;;4.57;0.85;;;5.50;90.10;;;;;;5027022;28;20427;-51
2023/01/15 13:45:41;;;;;;;6.30;2.03;;;5.50;90.20;;;;;;5023972;28;20147;-48
2023/01/15 13:48:48;;;;;;;2.85;1.10;;;5.50;90.20;;;;;;5029508;28;20067;-50
2023/01/15 13:51:42;;;;;;;1.75;0.63;;;5.50;90.20;;;;;;5031268;28;20049;-48
2023/01/15 13:54:18;;;;;;;3.13;0.68;;;5.50;90.30;;;;;;5023296;28;20069;-52
2023/01/15 13:56:45;;;;;;;4.68;1.02;;;5.50;90.20;;;;;;5014026;28;20025;-48
2023/01/15 13:59:43;;;;;;;1.98;0.52;;;5.50;90.10;;;;;;5026776;28;20109;-48
2023/01/15 14:02:31;;;;;;;4.80;1.55;;;5.50;90.10;;;;;;5026766;28;20033;-49
2023/01/15 14:04:57;;;;;;;7.75;1.88;;;5.40;90.10;;;;;;5012567;28;20041;-47
2023/01/15 14:07:41;;;;;;;2.30;0.70;;;5.40;90.30;;;;;;5012391;28;20030;-49
2023/01/15 14:10:39;;;;;;;2.90;0.70;;;5.40;90.20;;;;;;5011552;28;20088;-51
2023/01/15 14:13:36;;;;;;;3.28;0.77;;;5.50;90.40;;;;;;5017859;28;20033;-54
2023/01/15 14:16:22;;;;;;;5.93;0.80;;;5.50;90.30;;;;;;5019045;28;20079;-54
2023/01/15 14:19:12;;;;;;;4.50;0.82;;;5.50;90.20;;;;;;5029662;28;20356;-48
2023/01/15 14:22:11;;;;;;;5.55;1.02;;;5.50;90.50;;;;;;5022678;28;20029;-51
2023/01/15 14:24:39;;;;;;;3.67;0.98;;;5.50;90.20;;;;;;5003516;28;20061;-47